Accueil
METAR-TAF:

METAR-TAF

Aéroports :

Biarritz, France

Aéroport de Biarritz Pays Basque

latitude: 43-28N, longitude: 001-32W, altitude: 75 m

Observation

Le bulletin a été fait il y a 37 minutes, à 13:00 UTC
Vent 8 kt de nord-ouest, variant entre ouest et nord-est
Température 19°C
Humidité 56%
Pression 1026 hPa
Visibilité 10 km ou plus
pas de nuages en-dessous de 1500 mètres et pas de cumulonimbus.

METAR: LFBZ 191300Z AUTO 31008KT 270V040 CAVOK 19/10 Q1026 NOSIG

Heure: 15:37 (13:37 UTC)

Prévision

Le bulletin a été fait il y a 2 heures et 37 minutes, à 11:00 UTC
Prévision valable du 19 à 12 UTC au 20 à 12 UTC
Vent 7 kt de nord-ouest
Visibilité 10 km ou plus
Nuages épars à une hauteur de 4000 ft
Evoluant progressivement
du 19 à 22 UTC au 19 à 24 UTC
Vent 8 kt de est
Visibilité 10 km ou plus
pas de nuages en-dessous de 1500 mètres et pas de cumulonimbus.

TAF: LFBZ 191100Z 1912/2012 31007KT 9999 SCT040 BECMG 1922/1924 10008KT CAVOK

Observations et prévisions météorologiques de plus de 4000 aéroports (messages METAR et TAF).

Les stations disponibles sont représentées par des disques jaunes et rouges sur la carte.

Passer la souris dessus pour voir le nom de la station.

Cliquer dessus pour voir les observations et prévisions météorologiques.

Pour changer de carte: cliquez sur les boutons verts avec une croix noire pour zoomer, sur le bouton vert avec un tiret pour effectuer un zoom arrière, ou sur les flèches vertes pour les cartes adjacentes.


METAR-TAF: